createdAt,value
2023-04-20T00:01:23.356Z,5.38
2023-04-20T00:03:53.428Z,3.50
2023-04-20T00:06:25.640Z,5.45
2023-04-20T00:08:55.398Z,4.80
2023-04-20T00:11:25.080Z,4.53
2023-04-20T00:13:57.422Z,3.60
2023-04-20T00:16:27.209Z,4.43
2023-04-20T00:18:56.980Z,5.43
2023-04-20T00:21:27.395Z,3.47
2023-04-20T00:23:57.164Z,3.50
2023-04-20T00:26:26.892Z,4.03
2023-04-20T00:29:00.112Z,3.17
2023-04-20T00:31:29.885Z,6.63
2023-04-20T00:33:59.687Z,4.05
2023-04-20T00:36:30.168Z,4.97
2023-04-20T00:39:02.493Z,3.08
2023-04-20T00:41:32.224Z,4.32
2023-04-20T00:44:06.460Z,3.42
2023-04-20T00:49:08.523Z,5.88
2023-04-20T00:51:38.547Z,7.45
2023-04-20T00:54:08.815Z,4.50
2023-04-20T00:56:38.552Z,3.42
2023-04-20T00:59:13.174Z,3.40
2023-04-20T01:01:43.013Z,4.05
2023-04-20T01:04:13.045Z,3.65
2023-04-20T01:06:42.770Z,3.53
2023-04-20T01:09:12.729Z,4.03
2023-04-20T01:11:42.498Z,4.35
2023-04-20T01:14:14.987Z,3.78
2023-04-20T01:16:45.041Z,4.65
2023-04-20T01:19:15.846Z,5.47
2023-04-20T01:21:45.668Z,6.47
2023-04-20T01:24:17.929Z,3.92
2023-04-20T01:26:47.618Z,3.33
2023-04-20T01:29:17.511Z,3.83
2023-04-20T01:31:47.492Z,4.30
2023-04-20T01:34:17.821Z,3.78
2023-04-20T01:36:48.382Z,5.82
2023-04-20T01:39:20.906Z,3.28
2023-04-20T01:41:50.821Z,7.80
2023-04-20T01:44:20.912Z,5.22
2023-04-20T01:46:50.657Z,4.22
2023-04-20T01:49:20.451Z,5.25
2023-04-20T01:51:50.154Z,3.85
2023-04-20T01:54:22.419Z,3.75
2023-04-20T01:56:52.327Z,3.83
2023-04-20T01:59:22.021Z,5.13
2023-04-20T02:01:52.008Z,4.55
2023-04-20T02:04:21.732Z,3.85
2023-04-20T02:06:51.459Z,4.32
2023-04-20T02:09:23.749Z,4.82
2023-04-20T02:11:53.447Z,5.50
2023-04-20T02:14:23.133Z,3.15
2023-04-20T02:16:53.558Z,3.80
2023-04-20T02:19:23.389Z,3.85
2023-04-20T02:21:53.133Z,3.90
2023-04-20T02:24:25.772Z,3.80
2023-04-20T02:26:58.794Z,3.30
2023-04-20T02:29:28.566Z,3.85
2023-04-20T02:31:58.354Z,4.15
2023-04-20T02:34:28.182Z,5.30
2023-04-20T02:36:59.914Z,5.47
2023-04-20T02:39:32.263Z,4.13
2023-04-20T02:42:01.925Z,4.65
2023-04-20T02:44:32.044Z,10.80
2023-04-20T02:47:02.081Z,4.50
2023-04-20T02:49:32.562Z,3.30
2023-04-20T02:52:02.668Z,3.75
2023-04-20T02:54:35.276Z,3.78
2023-04-20T02:57:05.486Z,6.75
2023-04-20T02:59:37.693Z,3.03
2023-04-20T03:02:27.917Z,4.50
2023-04-20T03:04:58.616Z,3.72
2023-04-20T03:07:30.248Z,3.17
2023-04-20T03:10:02.667Z,3.63
2023-04-20T03:12:47.695Z,6.45
2023-04-20T03:15:33.599Z,4.32
2023-04-20T03:18:15.058Z,4.40
2023-04-20T03:20:44.772Z,4.07
2023-04-20T03:23:14.702Z,3.58
2023-04-20T03:25:47.227Z,6.03
2023-04-20T03:28:24.766Z,4.35
2023-04-20T03:30:54.856Z,3.60
2023-04-20T03:33:24.704Z,3.42
2023-04-20T03:35:54.499Z,6.53
2023-04-20T03:38:24.255Z,3.60
2023-04-20T03:40:57.568Z,3.97
2023-04-20T03:43:27.325Z,6.32
2023-04-20T03:45:58.409Z,3.53
2023-04-20T03:48:28.136Z,4.30
2023-04-20T03:50:59.060Z,3.90
2023-04-20T03:53:29.282Z,4.70
2023-04-20T03:56:01.842Z,4.00
2023-04-20T03:58:31.691Z,4.85
2023-04-20T04:01:15.940Z,3.65
2023-04-20T04:03:50.965Z,3.40
2023-04-20T04:06:20.821Z,4.25
2023-04-20T04:08:50.671Z,3.90
2023-04-20T04:11:22.954Z,4.43
2023-04-20T04:13:52.652Z,3.53
2023-04-20T04:16:22.608Z,3.08
2023-04-20T04:18:53.344Z,5.88
2023-04-20T04:21:23.535Z,3.97
2023-04-20T04:23:59.174Z,4.93
2023-04-20T04:26:40.325Z,4.28
2023-04-20T04:29:10.675Z,4.53
2023-04-20T04:31:40.613Z,4.13
2023-04-20T04:34:18.525Z,3.80
2023-04-20T04:36:52.761Z,3.72
2023-04-20T04:39:30.372Z,6.05
2023-04-20T04:42:11.622Z,4.72
2023-04-20T04:44:45.159Z,4.82
2023-04-20T04:47:20.089Z,5.10
2023-04-20T04:49:49.764Z,5.30
2023-04-20T04:52:19.430Z,5.90
2023-04-20T04:54:49.554Z,5.53
2023-04-20T04:57:21.829Z,9.23
2023-04-20T04:59:51.556Z,5.20
2023-04-20T05:02:21.916Z,5.85
2023-04-20T05:04:54.703Z,4.60
2023-04-20T05:07:24.948Z,6.55
2023-04-20T05:09:54.743Z,5.65
2023-04-20T05:12:27.408Z,5.40
2023-04-20T05:14:57.143Z,6.13
2023-04-20T05:17:26.933Z,5.18
2023-04-20T05:19:56.689Z,7.40
2023-04-20T05:22:26.393Z,5.38
2023-04-20T05:24:56.132Z,7.00
2023-04-20T05:27:28.509Z,5.32
2023-04-20T05:30:06.410Z,5.35
2023-04-20T05:32:48.511Z,4.80
2023-04-20T05:35:20.689Z,6.03
2023-04-20T05:37:50.398Z,6.65
2023-04-20T05:40:20.541Z,6.35
2023-04-20T05:42:52.853Z,8.43
2023-04-20T05:45:22.556Z,8.63
2023-04-20T05:47:55.856Z,9.35
2023-04-20T05:50:26.087Z,7.63
2023-04-20T05:52:56.319Z,5.65
2023-04-20T05:55:27.097Z,5.35
2023-04-20T05:57:59.381Z,6.20
2023-04-20T06:00:29.374Z,5.90
2023-04-20T06:02:59.272Z,6.93
2023-04-20T06:05:29.258Z,6.10
2023-04-20T06:07:59.035Z,4.32
2023-04-20T06:10:32.445Z,7.20
2023-04-20T06:13:04.929Z,6.80
2023-04-20T06:15:34.824Z,6.97
2023-04-20T06:18:04.591Z,4.63
2023-04-20T06:20:34.370Z,7.32
2023-04-20T06:23:04.139Z,9.50
2023-04-20T06:25:33.856Z,6.78
2023-04-20T06:28:06.422Z,7.93
2023-04-20T06:30:36.528Z,3.67
2023-04-20T06:33:06.688Z,4.00
2023-04-20T06:35:36.386Z,4.88
2023-04-20T06:38:06.112Z,7.78
2023-04-20T06:40:35.951Z,7.75
2023-04-20T06:43:08.243Z,5.75
2023-04-20T06:45:37.943Z,4.75
2023-04-20T06:48:17.149Z,3.40
2023-04-20T06:50:57.474Z,6.50
2023-04-20T06:53:27.157Z,5.05
2023-04-20T06:55:57.232Z,3.95
2023-04-20T06:58:29.545Z,3.15
2023-04-20T07:00:59.220Z,4.72
2023-04-20T07:03:29.019Z,4.82
2023-04-20T07:05:58.844Z,4.95
2023-04-20T07:08:28.505Z,2.92
2023-04-20T07:10:58.166Z,4.05
2023-04-20T07:13:33.416Z,3.58
2023-04-20T07:16:03.694Z,3.65
2023-04-20T07:18:35.279Z,2.58
2023-04-20T07:21:05.384Z,4.75
2023-04-20T07:23:35.076Z,4.72
2023-04-20T07:26:04.768Z,4.97
2023-04-20T07:28:37.258Z,5.40
2023-04-20T07:31:06.989Z,5.07
2023-04-20T07:33:36.751Z,4.80
2023-04-20T07:36:07.275Z,6.97
2023-04-20T07:38:36.904Z,5.07
2023-04-20T07:41:06.756Z,4.55
2023-04-20T07:43:39.084Z,2.67
2023-04-20T07:46:09.050Z,4.03
2023-04-20T07:48:38.948Z,4.22
2023-04-20T07:51:08.830Z,3.67
2023-04-20T07:53:39.167Z,6.28
2023-04-20T07:56:09.670Z,6.35
2023-04-20T07:58:41.910Z,3.63
2023-04-20T08:01:11.583Z,4.03
2023-04-20T08:03:41.808Z,5.28
2023-04-20T08:06:12.690Z,4.47
2023-04-20T08:08:42.438Z,4.32
2023-04-20T08:11:13.050Z,4.45
2023-04-20T08:13:45.288Z,3.72
2023-04-20T08:16:15.107Z,4.65
2023-04-20T08:18:44.922Z,3.97
2023-04-20T08:21:14.697Z,3.10
2023-04-20T08:23:44.425Z,3.95
2023-04-20T08:26:17.997Z,4.45
2023-04-20T08:28:50.373Z,3.33
2023-04-20T08:31:20.241Z,3.95
2023-04-20T08:33:49.976Z,4.78
2023-04-20T08:36:19.889Z,3.25
2023-04-20T08:38:53.442Z,4.32
2023-04-20T08:41:23.115Z,4.20
2023-04-20T08:43:55.494Z,2.90
2023-04-20T08:46:26.209Z,3.55
2023-04-20T08:48:56.370Z,5.47
2023-04-20T08:51:26.884Z,3.63
2023-04-20T08:53:58.368Z,3.42
2023-04-20T08:56:36.890Z,4.03
2023-04-20T08:59:10.640Z,4.32
2023-04-20T09:01:41.804Z,3.58
2023-04-20T09:04:19.774Z,3.42
2023-04-20T09:06:50.813Z,2.97
2023-04-20T09:09:20.995Z,3.33
2023-04-20T09:12:02.989Z,3.00
2023-04-20T09:14:45.415Z,3.30
2023-04-20T09:17:17.991Z,3.30
2023-04-20T09:19:49.136Z,4.07
2023-04-20T09:22:18.839Z,3.50
2023-04-20T09:24:48.527Z,3.13
2023-04-20T09:27:18.863Z,3.00
2023-04-20T09:30:00.310Z,2.70
2023-04-20T09:32:32.500Z,3.00
2023-04-20T09:35:02.241Z,3.70
2023-04-20T09:37:31.897Z,3.30
2023-04-20T09:40:03.049Z,3.53
2023-04-20T09:42:34.067Z,2.72
2023-04-20T09:45:06.825Z,3.67
2023-04-20T09:47:41.957Z,3.17
2023-04-20T09:50:26.780Z,3.03
2023-04-20T09:52:59.905Z,2.92
2023-04-20T09:55:30.315Z,2.55
2023-04-20T09:58:00.143Z,2.60
2023-04-20T10:00:32.568Z,2.90
2023-04-20T10:03:02.457Z,2.90
2023-04-20T10:05:39.969Z,2.70
2023-04-20T10:08:10.468Z,2.47
2023-04-20T10:10:47.750Z,2.85
2023-04-20T10:13:19.606Z,2.78
2023-04-20T10:15:52.092Z,2.63
2023-04-20T10:18:23.952Z,1.92
2023-04-20T10:20:54.588Z,3.05
2023-04-20T10:23:24.240Z,2.80
2023-04-20T10:26:01.174Z,2.50
2023-04-20T10:28:41.841Z,2.00
2023-04-20T10:31:17.158Z,1.92
2023-04-20T10:33:57.127Z,1.90
2023-04-20T10:36:28.077Z,2.50
2023-04-20T10:38:57.806Z,2.70
2023-04-20T10:41:27.553Z,2.50
2023-04-20T10:43:57.417Z,2.13
2023-04-20T10:46:29.717Z,3.53
2023-04-20T10:49:01.636Z,2.83
2023-04-20T10:51:31.676Z,2.78
2023-04-20T10:54:05.396Z,2.65
2023-04-20T10:56:43.470Z,4.35
2023-04-20T10:59:14.352Z,2.85
2023-04-20T11:01:48.094Z,3.20
2023-04-20T11:04:19.076Z,2.00
2023-04-20T11:06:51.876Z,2.15
2023-04-20T11:09:23.695Z,3.53
2023-04-20T11:12:04.234Z,1.95
2023-04-20T11:14:34.892Z,2.30
2023-04-20T11:17:07.600Z,2.60
2023-04-20T11:19:38.723Z,2.42
2023-04-20T11:22:08.990Z,2.10
2023-04-20T11:24:41.378Z,2.78
2023-04-20T11:27:11.173Z,2.15
2023-04-20T11:29:42.076Z,2.00
2023-04-20T11:32:14.587Z,1.52
2023-04-20T11:34:46.170Z,1.73
2023-04-20T11:37:17.888Z,1.85
2023-04-20T11:39:47.785Z,3.72
2023-04-20T11:42:17.751Z,1.60
2023-04-20T11:44:47.408Z,1.50
2023-04-20T11:47:19.705Z,1.67
2023-04-20T11:49:49.383Z,1.80
2023-04-20T11:52:19.062Z,1.90
2023-04-20T11:54:48.726Z,1.60
2023-04-20T11:57:18.933Z,2.38
2023-04-20T11:59:49.337Z,2.42
2023-04-20T12:02:21.650Z,2.00
2023-04-20T12:04:52.005Z,2.55
2023-04-20T12:07:21.802Z,2.40
2023-04-20T12:09:51.549Z,2.25
2023-04-20T12:12:22.204Z,2.33
2023-04-20T12:14:51.855Z,2.65
2023-04-20T12:17:24.121Z,2.65
2023-04-20T12:19:54.174Z,2.90
2023-04-20T12:22:23.984Z,2.70
2023-04-20T12:24:53.669Z,2.88
2023-04-20T12:27:23.308Z,3.17
2023-04-20T12:29:52.948Z,3.88
2023-04-20T12:32:25.214Z,3.25
2023-04-20T12:34:54.925Z,3.58
2023-04-20T12:37:24.687Z,3.70
2023-04-20T12:39:54.415Z,3.53
2023-04-20T12:42:24.243Z,4.38
2023-04-20T12:44:56.433Z,3.35
2023-04-20T12:47:28.758Z,3.00
2023-04-20T12:49:58.591Z,3.55
2023-04-20T12:52:29.263Z,3.10
2023-04-20T12:54:58.991Z,3.40
2023-04-20T12:57:28.668Z,3.95
2023-04-20T12:59:59.840Z,3.65
2023-04-20T13:02:32.442Z,2.70
2023-04-20T13:05:02.254Z,3.78
2023-04-20T13:07:31.951Z,4.55
2023-04-20T13:10:02.610Z,3.22
2023-04-20T13:12:32.331Z,3.55
2023-04-20T13:15:02.072Z,2.97
2023-04-20T13:17:34.431Z,3.50
2023-04-20T13:20:04.878Z,4.32
2023-04-20T13:22:38.904Z,4.05
2023-04-20T13:25:13.520Z,3.67
2023-04-20T13:27:43.228Z,2.55
2023-04-20T13:30:14.178Z,4.20
2023-04-20T13:32:46.427Z,3.47
2023-04-20T13:35:16.587Z,3.58
2023-04-20T13:37:47.389Z,4.68
2023-04-20T13:40:17.413Z,4.60
2023-04-20T13:42:47.093Z,3.72
2023-04-20T13:45:16.917Z,3.97
2023-04-20T13:47:49.258Z,3.97
2023-04-20T13:50:18.964Z,4.55
2023-04-20T13:52:48.634Z,5.65
2023-04-20T13:55:20.605Z,3.78
2023-04-20T13:57:50.402Z,3.20
2023-04-20T14:00:21.886Z,4.03
2023-04-20T14:02:54.249Z,4.72
2023-04-20T14:05:24.045Z,4.80
2023-04-20T14:07:53.847Z,5.40
2023-04-20T14:10:23.633Z,3.78
2023-04-20T14:12:53.368Z,2.80
2023-04-20T14:15:23.048Z,4.00
2023-04-20T14:17:55.353Z,3.80
2023-04-20T14:20:25.422Z,4.78
2023-04-20T14:22:55.382Z,5.85
2023-04-20T14:25:25.086Z,3.92
2023-04-20T14:27:54.817Z,4.32
2023-04-20T14:30:24.914Z,4.38
2023-04-20T14:33:04.078Z,6.00
2023-04-20T14:35:33.929Z,6.28
2023-04-20T14:38:03.605Z,4.90
2023-04-20T14:40:34.789Z,4.32
2023-04-20T14:43:04.489Z,5.88
2023-04-20T14:45:34.172Z,5.25
2023-04-20T14:48:06.853Z,5.80
2023-04-20T14:50:36.848Z,5.00
2023-04-20T14:53:06.512Z,5.38
2023-04-20T14:55:36.243Z,6.15
2023-04-20T14:58:05.949Z,5.18
2023-04-20T15:00:35.835Z,4.03
2023-04-20T15:03:08.258Z,3.95
2023-04-20T15:05:38.442Z,4.95
2023-04-20T15:08:08.528Z,4.53
2023-04-20T15:10:38.333Z,2.88
2023-04-20T15:13:08.786Z,5.13
2023-04-20T15:15:48.118Z,3.50
2023-04-20T15:18:21.963Z,5.78
2023-04-20T15:20:53.602Z,4.30
2023-04-20T15:23:23.456Z,2.75
2023-04-20T15:25:53.192Z,2.97
2023-04-20T15:28:22.936Z,3.05
2023-04-20T15:30:52.645Z,3.90
2023-04-20T15:33:24.911Z,3.25
2023-04-20T15:35:54.575Z,3.60
2023-04-20T15:38:24.242Z,4.07
2023-04-20T15:40:54.153Z,3.75
2023-04-20T15:43:23.826Z,3.30
2023-04-20T15:45:53.554Z,4.57
2023-04-20T15:48:25.854Z,2.40
2023-04-20T15:50:55.654Z,3.15
2023-04-20T15:53:25.384Z,3.60
2023-04-20T15:55:55.109Z,3.20
2023-04-20T15:58:24.918Z,3.30
2023-04-20T16:00:54.630Z,4.05
2023-04-20T16:03:27.029Z,4.40
2023-04-20T16:05:56.813Z,3.22
2023-04-20T16:08:26.552Z,4.38
2023-04-20T16:10:56.229Z,2.70
2023-04-20T16:13:26.312Z,3.40
2023-04-20T16:15:56.109Z,3.40
2023-04-20T16:18:29.869Z,3.13
2023-04-20T16:20:59.525Z,3.58
2023-04-20T16:23:29.349Z,4.38
2023-04-20T16:25:59.036Z,3.92
2023-04-20T16:28:29.627Z,4.82
2023-04-20T16:30:59.327Z,4.85
2023-04-20T16:33:32.564Z,2.45
2023-04-20T16:36:02.347Z,4.50
2023-04-20T16:38:32.043Z,4.07
2023-04-20T16:41:01.736Z,4.05
2023-04-20T16:43:31.656Z,4.38
2023-04-20T16:46:01.526Z,4.68
2023-04-20T16:48:34.161Z,5.68
2023-04-20T16:51:03.949Z,4.47
2023-04-20T16:53:33.734Z,3.72
2023-04-20T16:56:03.482Z,5.90
2023-04-20T16:58:33.133Z,4.38
2023-04-20T17:01:03.080Z,5.32
2023-04-20T17:03:35.824Z,5.13
2023-04-20T17:06:08.183Z,5.72
2023-04-20T17:08:38.176Z,4.28
2023-04-20T17:11:08.233Z,4.68
2023-04-20T17:13:37.986Z,5.78
2023-04-20T17:16:07.923Z,6.65
2023-04-20T17:18:41.939Z,5.93
2023-04-20T17:21:11.922Z,6.82
2023-04-20T17:23:41.662Z,4.60
2023-04-20T17:26:11.893Z,5.00
2023-04-20T17:28:41.578Z,5.35
2023-04-20T17:31:11.406Z,4.63
2023-04-20T17:33:45.102Z,5.72
2023-04-20T17:36:14.851Z,5.22
2023-04-20T17:38:44.519Z,6.45
2023-04-20T17:41:14.304Z,5.32
2023-04-20T17:43:43.982Z,6.50
2023-04-20T17:46:13.752Z,4.85
2023-04-20T17:48:46.091Z,4.93
2023-04-20T17:51:16.196Z,7.25
2023-04-20T17:53:45.955Z,5.80
2023-04-20T17:56:15.665Z,4.25
2023-04-20T17:58:45.339Z,6.38
2023-04-20T18:01:15.112Z,5.35
2023-04-20T18:03:48.476Z,3.92
2023-04-20T18:06:18.496Z,7.82
2023-04-20T18:08:48.523Z,6.63
2023-04-20T18:11:18.209Z,4.25
2023-04-20T18:13:47.909Z,6.38
2023-04-20T18:16:17.727Z,6.53
2023-04-20T18:18:50.534Z,6.45
2023-04-20T18:21:20.754Z,6.40
2023-04-20T18:23:51.480Z,4.95
2023-04-20T18:26:21.154Z,7.50
2023-04-20T18:28:50.949Z,6.70
2023-04-20T18:31:20.680Z,4.65
2023-04-20T18:33:53.010Z,5.00
2023-04-20T18:36:22.696Z,6.82
2023-04-20T18:38:54.191Z,6.32
2023-04-20T18:41:25.855Z,6.00
2023-04-20T18:43:55.877Z,7.28
2023-04-20T18:46:25.759Z,7.80
2023-04-20T18:48:58.126Z,6.95
2023-04-20T18:51:27.801Z,6.65
2023-04-20T18:53:57.488Z,5.47
2023-04-20T18:56:27.145Z,7.78
2023-04-20T18:58:58.085Z,5.00
2023-04-20T19:01:27.873Z,6.25
2023-04-20T19:04:00.707Z,6.03
2023-04-20T19:06:31.290Z,7.40
2023-04-20T19:09:01.331Z,5.18
2023-04-20T19:11:33.615Z,4.82
2023-04-20T19:14:03.301Z,5.72
2023-04-20T19:16:33.843Z,6.00
2023-04-20T19:19:06.551Z,7.38
2023-04-20T19:21:36.443Z,6.10
2023-04-20T19:24:06.511Z,7.28
2023-04-20T19:26:36.906Z,7.53
2023-04-20T19:29:06.593Z,6.55
2023-04-20T19:31:38.006Z,7.45
2023-04-20T19:34:13.541Z,7.10
2023-04-20T19:36:43.575Z,7.15
2023-04-20T19:39:13.304Z,9.23
2023-04-20T19:41:43.020Z,7.70
2023-04-20T19:44:14.483Z,6.22
2023-04-20T19:46:46.228Z,7.03
2023-04-20T19:49:18.982Z,6.97
2023-04-20T19:51:48.865Z,6.68
2023-04-20T19:54:19.065Z,6.85
2023-04-20T19:56:49.053Z,8.52
2023-04-20T19:59:19.080Z,8.73
2023-04-20T20:01:50.680Z,7.90
2023-04-20T20:04:23.404Z,7.38
2023-04-20T20:06:53.305Z,8.40
2023-04-20T20:09:24.125Z,8.10
2023-04-20T20:11:54.125Z,8.00
2023-04-20T20:14:23.854Z,7.95
2023-04-20T20:16:53.540Z,8.50
2023-04-20T20:19:25.898Z,8.07
2023-04-20T20:21:55.952Z,8.52
2023-04-20T20:24:26.146Z,8.57
2023-04-20T20:26:55.828Z,12.07
2023-04-20T20:29:25.853Z,8.70
2023-04-20T20:31:55.639Z,8.82
2023-04-20T20:34:28.067Z,8.35
2023-04-20T20:36:58.755Z,10.68
2023-04-20T20:39:28.440Z,12.93
2023-04-20T20:41:58.106Z,10.20
2023-04-20T20:44:29.026Z,10.70
2023-04-20T20:46:58.818Z,13.82
2023-04-20T20:49:31.239Z,11.07
2023-04-20T20:52:02.286Z,14.27
2023-04-20T20:54:32.103Z,16.40
2023-04-20T20:57:01.864Z,10.95
2023-04-20T20:59:31.539Z,12.48
2023-04-20T21:02:01.413Z,13.93
2023-04-20T21:04:33.764Z,15.63
2023-04-20T21:07:03.539Z,15.20
2023-04-20T21:09:33.286Z,14.10
2023-04-20T21:12:03.095Z,16.05
2023-04-20T21:14:32.767Z,13.85
2023-04-20T21:17:02.600Z,15.65
2023-04-20T21:19:35.034Z,16.88
2023-04-20T21:22:04.850Z,17.90
2023-04-20T21:24:34.552Z,15.85
2023-04-20T21:27:04.281Z,15.48
2023-04-20T21:29:33.963Z,14.98
2023-04-20T21:32:03.675Z,16.33
2023-04-20T21:34:36.114Z,17.13
2023-04-20T21:37:06.350Z,18.05
2023-04-20T21:39:36.069Z,17.48
2023-04-20T21:42:05.978Z,14.95
2023-04-20T21:44:35.833Z,14.70
2023-04-20T21:47:05.501Z,16.52
2023-04-20T21:49:37.792Z,17.27
2023-04-20T21:52:07.524Z,15.82
2023-04-20T21:54:38.074Z,15.27
2023-04-20T21:57:07.752Z,16.55
2023-04-20T21:59:37.472Z,21.08
2023-04-20T22:02:07.321Z,19.17
2023-04-20T22:04:40.021Z,17.52
2023-04-20T22:07:09.922Z,15.90
2023-04-20T22:09:39.689Z,18.35
2023-04-20T22:12:09.871Z,17.92
2023-04-20T22:14:39.536Z,16.80
2023-04-20T22:17:09.725Z,18.55
2023-04-20T22:19:42.353Z,15.70
2023-04-20T22:22:12.085Z,17.92
2023-04-20T22:24:42.118Z,16.27
2023-04-20T22:27:11.851Z,15.20
2023-04-20T22:29:41.566Z,18.05
2023-04-20T22:32:11.259Z,16.20
2023-04-20T22:34:43.512Z,20.55
2023-04-20T22:37:13.238Z,19.40
2023-04-20T22:39:42.976Z,16.83
2023-04-20T22:42:12.615Z,17.58
2023-04-20T22:44:42.305Z,20.90
2023-04-20T22:47:12.045Z,23.83
2023-04-20T22:49:45.037Z,20.80
2023-04-20T22:52:14.870Z,22.77
2023-04-20T22:54:48.246Z,22.98
2023-04-20T22:57:18.708Z,19.55
2023-04-20T22:59:48.915Z,20.02
2023-04-20T23:02:18.872Z,20.20
2023-04-20T23:04:51.673Z,22.33
2023-04-20T23:07:21.597Z,21.77
2023-04-20T23:09:51.271Z,19.80
2023-04-20T23:12:20.980Z,22.33
2023-04-20T23:14:50.964Z,23.38
2023-04-20T23:17:20.785Z,19.98
2023-04-20T23:19:53.084Z,20.13
2023-04-20T23:22:22.740Z,24.13
2023-04-20T23:24:52.433Z,19.63
2023-04-20T23:27:22.105Z,21.30
2023-04-20T23:29:52.160Z,23.55
2023-04-20T23:32:21.870Z,21.40
2023-04-20T23:34:54.265Z,26.02
2023-04-20T23:37:23.930Z,23.95
2023-04-20T23:39:53.610Z,22.77
2023-04-20T23:42:23.280Z,19.77
2023-04-20T23:44:52.958Z,22.98
2023-04-20T23:47:22.721Z,22.13
2023-04-20T23:49:55.063Z,22.25
2023-04-20T23:52:24.792Z,23.23
2023-04-20T23:54:54.516Z,23.05
2023-04-20T23:57:24.183Z,24.17
2023-04-20T23:59:53.869Z,25.40
